sensor_id;sensor_type;location;lat;lon;timestamp;temperature;humidity
22850;DHT22;11591;44.792;10.358;2023-02-22T00:01:16;11.90;99.90
22850;DHT22;11591;44.792;10.358;2023-02-22T00:04:01;11.90;99.90
22850;DHT22;11591;44.792;10.358;2023-02-22T00:06:27;11.90;99.90
22850;DHT22;11591;44.792;10.358;2023-02-22T00:08:53;11.80;99.90
22850;DHT22;11591;44.792;10.358;2023-02-22T00:11:20;11.80;99.90
22850;DHT22;11591;44.792;10.358;2023-02-22T00:13:46;11.80;99.90
22850;DHT22;11591;44.792;10.358;2023-02-22T00:16:19;11.80;99.90
22850;DHT22;11591;44.792;10.358;2023-02-22T00:18:46;11.80;99.90
22850;DHT22;11591;44.792;10.358;2023-02-22T00:21:13;11.70;99.90
22850;DHT22;11591;44.792;10.358;2023-02-22T00:23:42;11.70;99.90
22850;DHT22;11591;44.792;10.358;2023-02-22T00:26:12;11.70;99.90
22850;DHT22;11591;44.792;10.358;2023-02-22T00:28:53;11.70;99.90
22850;DHT22;11591;44.792;10.358;2023-02-22T00:31:20;11.70;99.90
22850;DHT22;11591;44.792;10.358;2023-02-22T00:33:46;11.70;99.90
22850;DHT22;11591;44.792;10.358;2023-02-22T00:36:12;11.70;99.90
22850;DHT22;11591;44.792;10.358;2023-02-22T00:38:39;11.80;99.90
22850;DHT22;11591;44.792;10.358;2023-02-22T00:41:07;11.80;99.90
22850;DHT22;11591;44.792;10.358;2023-02-22T00:43:33;11.80;99.90
22850;DHT22;11591;44.792;10.358;2023-02-22T00:45:59;11.70;99.90
22850;DHT22;11591;44.792;10.358;2023-02-22T00:48:24;11.70;99.90
22850;DHT22;11591;44.792;10.358;2023-02-22T00:50:51;11.70;99.90
22850;DHT22;11591;44.792;10.358;2023-02-22T00:53:21;11.70;99.90
22850;DHT22;11591;44.792;10.358;2023-02-22T00:55:47;11.70;99.90
22850;DHT22;11591;44.792;10.358;2023-02-22T00:58:12;11.70;99.90
22850;DHT22;11591;44.792;10.358;2023-02-22T01:00:40;11.70;99.90
22850;DHT22;11591;44.792;10.358;2023-02-22T01:03:08;11.70;99.90
22850;DHT22;11591;44.792;10.358;2023-02-22T01:05:35;11.70;99.90
22850;DHT22;11591;44.792;10.358;2023-02-22T01:08:04;11.70;99.90
22850;DHT22;11591;44.792;10.358;2023-02-22T01:10:33;11.70;99.90
22850;DHT22;11591;44.792;10.358;2023-02-22T01:12:59;11.70;99.90
22850;DHT22;11591;44.792;10.358;2023-02-22T01:15:27;11.70;99.90
22850;DHT22;11591;44.792;10.358;2023-02-22T01:17:56;11.70;99.90
22850;DHT22;11591;44.792;10.358;2023-02-22T01:20:24;11.60;99.90
22850;DHT22;11591;44.792;10.358;2023-02-22T01:22:54;11.70;99.90
22850;DHT22;11591;44.792;10.358;2023-02-22T01:25:23;11.60;99.90
22850;DHT22;11591;44.792;10.358;2023-02-22T01:27:50;11.60;99.90
22850;DHT22;11591;44.792;10.358;2023-02-22T01:30:21;11.60;99.90
22850;DHT22;11591;44.792;10.358;2023-02-22T01:32:47;11.50;99.90
22850;DHT22;11591;44.792;10.358;2023-02-22T01:35:15;11.50;99.90
22850;DHT22;11591;44.792;10.358;2023-02-22T01:37:44;11.50;99.90
22850;DHT22;11591;44.792;10.358;2023-02-22T01:40:22;11.50;99.90
22850;DHT22;11591;44.792;10.358;2023-02-22T01:42:52;11.40;99.90
22850;DHT22;11591;44.792;10.358;2023-02-22T01:48:24;11.40;99.90
22850;DHT22;11591;44.792;10.358;2023-02-22T01:54:18;11.30;99.90
22850;DHT22;11591;44.792;10.358;2023-02-22T01:59:42;11.30;99.90
22850;DHT22;11591;44.792;10.358;2023-02-22T02:02:09;11.30;99.90
22850;DHT22;11591;44.792;10.358;2023-02-22T02:04:36;11.20;99.90
22850;DHT22;11591;44.792;10.358;2023-02-22T02:07:04;11.20;99.90
22850;DHT22;11591;44.792;10.358;2023-02-22T02:09:39;11.20;99.90
22850;DHT22;11591;44.792;10.358;2023-02-22T02:12:10;11.20;99.90
22850;DHT22;11591;44.792;10.358;2023-02-22T02:14:37;11.20;99.90
22850;DHT22;11591;44.792;10.358;2023-02-22T02:17:07;11.20;99.90
22850;DHT22;11591;44.792;10.358;2023-02-22T02:34:04;11.20;99.90
22850;DHT22;11591;44.792;10.358;2023-02-22T02:39:58;11.10;99.90
22850;DHT22;11591;44.792;10.358;2023-02-22T02:42:32;11.20;99.90
22850;DHT22;11591;44.792;10.358;2023-02-22T02:45:07;11.10;99.90
22850;DHT22;11591;44.792;10.358;2023-02-22T02:47:41;11.20;99.90
22850;DHT22;11591;44.792;10.358;2023-02-22T02:50:13;11.10;99.90
22850;DHT22;11591;44.792;10.358;2023-02-22T02:52:41;11.20;99.90
22850;DHT22;11591;44.792;10.358;2023-02-22T02:55:08;11.10;99.90
22850;DHT22;11591;44.792;10.358;2023-02-22T02:57:36;11.10;99.90
22850;DHT22;11591;44.792;10.358;2023-02-22T03:00:04;11.20;99.90
22850;DHT22;11591;44.792;10.358;2023-02-22T03:16:45;11.10;99.90
22850;DHT22;11591;44.792;10.358;2023-02-22T03:24:45;11.10;99.90
22850;DHT22;11591;44.792;10.358;2023-02-22T03:27:33;11.10;99.90
22850;DHT22;11591;44.792;10.358;2023-02-22T03:30:06;11.10;99.90
22850;DHT22;11591;44.792;10.358;2023-02-22T03:32:38;11.10;99.90
22850;DHT22;11591;44.792;10.358;2023-02-22T03:35:09;11.10;99.90
22850;DHT22;11591;44.792;10.358;2023-02-22T03:37:41;11.10;99.90
22850;DHT22;11591;44.792;10.358;2023-02-22T03:40:13;11.10;99.90
22850;DHT22;11591;44.792;10.358;2023-02-22T03:42:48;11.10;99.90
22850;DHT22;11591;44.792;10.358;2023-02-22T03:45:17;11.10;99.90
22850;DHT22;11591;44.792;10.358;2023-02-22T03:47:50;11.10;99.90
22850;DHT22;11591;44.792;10.358;2023-02-22T03:50:22;11.10;99.90
22850;DHT22;11591;44.792;10.358;2023-02-22T03:52:51;11.10;99.90
22850;DHT22;11591;44.792;10.358;2023-02-22T03:55:23;11.10;99.90
22850;DHT22;11591;44.792;10.358;2023-02-22T03:57:53;11.10;99.90
22850;DHT22;11591;44.792;10.358;2023-02-22T04:00:23;11.20;99.90
22850;DHT22;11591;44.792;10.358;2023-02-22T04:02:50;11.20;99.90
22850;DHT22;11591;44.792;10.358;2023-02-22T04:05:19;11.20;99.90
22850;DHT22;11591;44.792;10.358;2023-02-22T04:07:46;11.20;99.90
22850;DHT22;11591;44.792;10.358;2023-02-22T04:10:15;11.20;99.90
22850;DHT22;11591;44.792;10.358;2023-02-22T04:12:42;11.10;99.90
22850;DHT22;11591;44.792;10.358;2023-02-22T04:15:10;11.10;99.90
22850;DHT22;11591;44.792;10.358;2023-02-22T04:17:36;11.20;99.90
22850;DHT22;11591;44.792;10.358;2023-02-22T04:20:03;11.10;99.90
22850;DHT22;11591;44.792;10.358;2023-02-22T04:22:41;11.00;99.90
22850;DHT22;11591;44.792;10.358;2023-02-22T04:25:07;11.10;99.90
22850;DHT22;11591;44.792;10.358;2023-02-22T04:27:33;11.00;99.90
22850;DHT22;11591;44.792;10.358;2023-02-22T04:29:59;11.10;99.90
22850;DHT22;11591;44.792;10.358;2023-02-22T04:32:26;11.10;99.90
22850;DHT22;11591;44.792;10.358;2023-02-22T04:34:52;11.10;99.90
22850;DHT22;11591;44.792;10.358;2023-02-22T04:37:18;11.10;99.90
22850;DHT22;11591;44.792;10.358;2023-02-22T04:39:44;11.20;99.90
22850;DHT22;11591;44.792;10.358;2023-02-22T04:42:10;11.10;99.90
22850;DHT22;11591;44.792;10.358;2023-02-22T04:44:37;11.10;99.90
22850;DHT22;11591;44.792;10.358;2023-02-22T04:47:03;11.10;99.90
22850;DHT22;11591;44.792;10.358;2023-02-22T04:49:29;11.10;99.90
22850;DHT22;11591;44.792;10.358;2023-02-22T04:51:55;11.10;99.90
22850;DHT22;11591;44.792;10.358;2023-02-22T04:54:29;11.20;99.90
22850;DHT22;11591;44.792;10.358;2023-02-22T04:56:55;11.20;99.90
22850;DHT22;11591;44.792;10.358;2023-02-22T04:59:22;11.20;99.90
22850;DHT22;11591;44.792;10.358;2023-02-22T05:01:54;11.10;99.90
22850;DHT22;11591;44.792;10.358;2023-02-22T05:04:20;11.10;99.90
22850;DHT22;11591;44.792;10.358;2023-02-22T05:06:46;11.10;99.90
22850;DHT22;11591;44.792;10.358;2023-02-22T05:09:13;11.00;99.90
22850;DHT22;11591;44.792;10.358;2023-02-22T05:11:39;11.00;99.90
22850;DHT22;11591;44.792;10.358;2023-02-22T05:14:05;11.10;99.90
22850;DHT22;11591;44.792;10.358;2023-02-22T05:16:32;11.10;99.90
22850;DHT22;11591;44.792;10.358;2023-02-22T05:18:58;11.10;99.90
22850;DHT22;11591;44.792;10.358;2023-02-22T05:21:24;11.10;99.90
22850;DHT22;11591;44.792;10.358;2023-02-22T05:23:49;11.20;99.90
22850;DHT22;11591;44.792;10.358;2023-02-22T05:26:15;11.20;99.90
22850;DHT22;11591;44.792;10.358;2023-02-22T05:28:41;11.20;99.90
22850;DHT22;11591;44.792;10.358;2023-02-22T05:31:07;11.10;99.90
22850;DHT22;11591;44.792;10.358;2023-02-22T05:33:33;11.10;99.90
22850;DHT22;11591;44.792;10.358;2023-02-22T05:35:59;11.10;99.90
22850;DHT22;11591;44.792;10.358;2023-02-22T05:38:25;11.10;99.90
22850;DHT22;11591;44.792;10.358;2023-02-22T05:40:51;11.20;99.90
22850;DHT22;11591;44.792;10.358;2023-02-22T05:43:16;11.20;99.90
22850;DHT22;11591;44.792;10.358;2023-02-22T05:45:42;11.20;99.90
22850;DHT22;11591;44.792;10.358;2023-02-22T05:48:08;11.10;99.90
22850;DHT22;11591;44.792;10.358;2023-02-22T05:50:34;11.10;99.90
22850;DHT22;11591;44.792;10.358;2023-02-22T05:53:00;11.20;99.90
22850;DHT22;11591;44.792;10.358;2023-02-22T05:55:26;11.20;99.90
22850;DHT22;11591;44.792;10.358;2023-02-22T05:57:52;11.20;99.90
22850;DHT22;11591;44.792;10.358;2023-02-22T06:00:24;11.10;99.90
22850;DHT22;11591;44.792;10.358;2023-02-22T06:02:58;11.10;99.90
22850;DHT22;11591;44.792;10.358;2023-02-22T06:05:25;11.10;99.90
22850;DHT22;11591;44.792;10.358;2023-02-22T06:07:51;11.10;99.90
22850;DHT22;11591;44.792;10.358;2023-02-22T06:10:18;11.10;99.90
22850;DHT22;11591;44.792;10.358;2023-02-22T06:12:45;11.10;99.90
22850;DHT22;11591;44.792;10.358;2023-02-22T06:15:11;11.10;99.90
22850;DHT22;11591;44.792;10.358;2023-02-22T06:17:37;11.10;99.90
22850;DHT22;11591;44.792;10.358;2023-02-22T06:20:04;11.10;99.90
22850;DHT22;11591;44.792;10.358;2023-02-22T06:22:30;11.10;99.90
22850;DHT22;11591;44.792;10.358;2023-02-22T06:24:56;11.00;99.90
22850;DHT22;11591;44.792;10.358;2023-02-22T06:27:22;11.00;99.90
22850;DHT22;11591;44.792;10.358;2023-02-22T06:29:47;11.00;99.90
22850;DHT22;11591;44.792;10.358;2023-02-22T06:32:14;11.10;99.90
22850;DHT22;11591;44.792;10.358;2023-02-22T06:34:58;11.10;99.90
22850;DHT22;11591;44.792;10.358;2023-02-22T06:37:24;11.10;99.90
22850;DHT22;11591;44.792;10.358;2023-02-22T06:39:50;11.10;99.90
22850;DHT22;11591;44.792;10.358;2023-02-22T06:42:34;11.20;99.90
22850;DHT22;11591;44.792;10.358;2023-02-22T06:45:00;11.10;99.90
22850;DHT22;11591;44.792;10.358;2023-02-22T06:47:26;11.20;99.90
22850;DHT22;11591;44.792;10.358;2023-02-22T06:49:53;11.10;99.90
22850;DHT22;11591;44.792;10.358;2023-02-22T06:52:19;11.10;99.90
22850;DHT22;11591;44.792;10.358;2023-02-22T06:54:45;11.20;99.90
22850;DHT22;11591;44.792;10.358;2023-02-22T06:57:10;11.20;99.90
22850;DHT22;11591;44.792;10.358;2023-02-22T06:59:36;11.20;99.90
22850;DHT22;11591;44.792;10.358;2023-02-22T07:02:02;11.20;99.90
22850;DHT22;11591;44.792;10.358;2023-02-22T07:04:28;11.20;99.90
22850;DHT22;11591;44.792;10.358;2023-02-22T07:06:54;11.20;99.90
22850;DHT22;11591;44.792;10.358;2023-02-22T07:09:20;11.20;99.90
22850;DHT22;11591;44.792;10.358;2023-02-22T07:11:46;11.20;99.90
22850;DHT22;11591;44.792;10.358;2023-02-22T07:14:12;11.20;99.90
22850;DHT22;11591;44.792;10.358;2023-02-22T07:16:40;11.20;99.90
22850;DHT22;11591;44.792;10.358;2023-02-22T07:19:06;11.20;99.90
22850;DHT22;11591;44.792;10.358;2023-02-22T07:21:32;11.20;99.90
22850;DHT22;11591;44.792;10.358;2023-02-22T07:23:58;11.10;99.90
22850;DHT22;11591;44.792;10.358;2023-02-22T07:26:24;11.20;99.90
22850;DHT22;11591;44.792;10.358;2023-02-22T07:28:50;11.20;99.90
22850;DHT22;11591;44.792;10.358;2023-02-22T07:31:17;11.20;99.90
22850;DHT22;11591;44.792;10.358;2023-02-22T07:33:45;11.20;99.90
22850;DHT22;11591;44.792;10.358;2023-02-22T07:36:12;11.20;99.90
22850;DHT22;11591;44.792;10.358;2023-02-22T07:38:43;11.20;99.90
22850;DHT22;11591;44.792;10.358;2023-02-22T07:41:09;11.20;99.90
22850;DHT22;11591;44.792;10.358;2023-02-22T07:43:35;11.20;99.90
22850;DHT22;11591;44.792;10.358;2023-02-22T07:46:03;11.20;99.90
22850;DHT22;11591;44.792;10.358;2023-02-22T07:48:30;11.20;99.90
22850;DHT22;11591;44.792;10.358;2023-02-22T07:50:57;11.20;99.90
22850;DHT22;11591;44.792;10.358;2023-02-22T07:53:28;11.20;99.90
22850;DHT22;11591;44.792;10.358;2023-02-22T07:55:58;11.20;99.90
22850;DHT22;11591;44.792;10.358;2023-02-22T07:58:26;11.30;99.90
22850;DHT22;11591;44.792;10.358;2023-02-22T08:00:53;11.30;99.90
22850;DHT22;11591;44.792;10.358;2023-02-22T08:03:20;11.30;99.90
22850;DHT22;11591;44.792;10.358;2023-02-22T08:05:53;11.30;99.90
22850;DHT22;11591;44.792;10.358;2023-02-22T08:08:20;11.30;99.90
22850;DHT22;11591;44.792;10.358;2023-02-22T08:10:46;11.30;99.90
22850;DHT22;11591;44.792;10.358;2023-02-22T08:13:12;11.30;99.90
22850;DHT22;11591;44.792;10.358;2023-02-22T08:15:39;11.30;99.90
22850;DHT22;11591;44.792;10.358;2023-02-22T08:18:08;11.40;99.90
22850;DHT22;11591;44.792;10.358;2023-02-22T08:20:36;11.40;99.90
22850;DHT22;11591;44.792;10.358;2023-02-22T08:23:03;11.40;99.90
22850;DHT22;11591;44.792;10.358;2023-02-22T08:25:29;11.40;99.90
22850;DHT22;11591;44.792;10.358;2023-02-22T08:28:01;11.40;99.90
22850;DHT22;11591;44.792;10.358;2023-02-22T08:30:28;11.40;99.90
22850;DHT22;11591;44.792;10.358;2023-02-22T08:32:54;11.40;99.90
22850;DHT22;11591;44.792;10.358;2023-02-22T08:35:21;11.40;99.90
22850;DHT22;11591;44.792;10.358;2023-02-22T08:37:52;11.40;99.90
22850;DHT22;11591;44.792;10.358;2023-02-22T08:40:21;11.40;99.90
22850;DHT22;11591;44.792;10.358;2023-02-22T08:42:47;11.40;99.90
22850;DHT22;11591;44.792;10.358;2023-02-22T08:45:13;11.40;99.90
22850;DHT22;11591;44.792;10.358;2023-02-22T08:47:40;11.40;99.90
22850;DHT22;11591;44.792;10.358;2023-02-22T08:50:07;11.40;99.90
22850;DHT22;11591;44.792;10.358;2023-02-22T08:52:33;11.40;99.90
22850;DHT22;11591;44.792;10.358;2023-02-22T08:54:59;11.40;99.90
22850;DHT22;11591;44.792;10.358;2023-02-22T08:57:26;11.40;99.90
22850;DHT22;11591;44.792;10.358;2023-02-22T08:59:51;11.50;99.90
22850;DHT22;11591;44.792;10.358;2023-02-22T09:02:20;11.50;99.90
22850;DHT22;11591;44.792;10.358;2023-02-22T09:04:47;11.50;99.90
22850;DHT22;11591;44.792;10.358;2023-02-22T09:07:14;11.50;99.90
22850;DHT22;11591;44.792;10.358;2023-02-22T09:09:42;11.60;99.90
22850;DHT22;11591;44.792;10.358;2023-02-22T09:12:08;11.60;99.90
22850;DHT22;11591;44.792;10.358;2023-02-22T09:14:34;11.60;99.90
22850;DHT22;11591;44.792;10.358;2023-02-22T09:17:00;11.70;99.90
22850;DHT22;11591;44.792;10.358;2023-02-22T09:19:26;11.60;99.90
22850;DHT22;11591;44.792;10.358;2023-02-22T09:21:53;11.70;99.90
22850;DHT22;11591;44.792;10.358;2023-02-22T09:24:20;11.70;99.90
22850;DHT22;11591;44.792;10.358;2023-02-22T09:26:47;11.70;99.90
22850;DHT22;11591;44.792;10.358;2023-02-22T09:29:21;11.80;99.90
22850;DHT22;11591;44.792;10.358;2023-02-22T09:31:49;11.80;99.90
22850;DHT22;11591;44.792;10.358;2023-02-22T09:34:15;11.80;99.90
22850;DHT22;11591;44.792;10.358;2023-02-22T09:36:42;11.80;99.90
22850;DHT22;11591;44.792;10.358;2023-02-22T09:39:08;11.80;99.90
22850;DHT22;11591;44.792;10.358;2023-02-22T09:44:52;11.80;99.90
22850;DHT22;11591;44.792;10.358;2023-02-22T09:47:32;11.80;99.90
22850;DHT22;11591;44.792;10.358;2023-02-22T09:50:04;11.90;99.90
22850;DHT22;11591;44.792;10.358;2023-02-22T09:52:57;11.90;99.90
22850;DHT22;11591;44.792;10.358;2023-02-22T09:55:36;11.90;99.90
22850;DHT22;11591;44.792;10.358;2023-02-22T10:00:56;11.80;99.90
22850;DHT22;11591;44.792;10.358;2023-02-22T10:03:41;11.80;99.90
22850;DHT22;11591;44.792;10.358;2023-02-22T10:06:14;11.80;99.90
22850;DHT22;11591;44.792;10.358;2023-02-22T10:08:41;11.90;99.90
22850;DHT22;11591;44.792;10.358;2023-02-22T10:25:11;12.00;99.90
22850;DHT22;11591;44.792;10.358;2023-02-22T10:27:46;12.10;99.90
22850;DHT22;11591;44.792;10.358;2023-02-22T10:30:42;12.10;99.90
22850;DHT22;11591;44.792;10.358;2023-02-22T10:33:32;12.10;99.90
22850;DHT22;11591;44.792;10.358;2023-02-22T10:35:59;12.10;99.90
22850;DHT22;11591;44.792;10.358;2023-02-22T10:38:33;12.10;99.90
22850;DHT22;11591;44.792;10.358;2023-02-22T10:43:35;12.20;99.90
22850;DHT22;11591;44.792;10.358;2023-02-22T10:46:04;12.20;99.90
22850;DHT22;11591;44.792;10.358;2023-02-22T10:48:35;12.30;99.90
22850;DHT22;11591;44.792;10.358;2023-02-22T10:51:04;12.30;99.90
22850;DHT22;11591;44.792;10.358;2023-02-22T10:53:31;12.30;99.90
22850;DHT22;11591;44.792;10.358;2023-02-22T10:56:10;12.40;99.90
22850;DHT22;11591;44.792;10.358;2023-02-22T10:58:57;12.40;99.90
22850;DHT22;11591;44.792;10.358;2023-02-22T11:01:35;12.40;99.90
22850;DHT22;11591;44.792;10.358;2023-02-22T11:04:10;12.40;99.90
22850;DHT22;11591;44.792;10.358;2023-02-22T11:06:37;12.40;99.90
22850;DHT22;11591;44.792;10.358;2023-02-22T11:09:10;12.40;99.90
22850;DHT22;11591;44.792;10.358;2023-02-22T11:11:37;12.50;99.90
22850;DHT22;11591;44.792;10.358;2023-02-22T11:14:04;12.50;99.90
22850;DHT22;11591;44.792;10.358;2023-02-22T11:16:42;12.50;99.90
22850;DHT22;11591;44.792;10.358;2023-02-22T11:19:25;12.50;99.90
22850;DHT22;11591;44.792;10.358;2023-02-22T11:21:58;12.60;99.90
22850;DHT22;11591;44.792;10.358;2023-02-22T11:24:48;12.60;99.90
22850;DHT22;11591;44.792;10.358;2023-02-22T11:27:41;12.60;99.90
22850;DHT22;11591;44.792;10.358;2023-02-22T11:38:21;12.80;99.90
22850;DHT22;11591;44.792;10.358;2023-02-22T11:41:11;12.80;99.90
22850;DHT22;11591;44.792;10.358;2023-02-22T11:43:39;12.90;99.90
22850;DHT22;11591;44.792;10.358;2023-02-22T11:46:26;12.90;99.90
22850;DHT22;11591;44.792;10.358;2023-02-22T11:49:08;12.80;99.90
22850;DHT22;11591;44.792;10.358;2023-02-22T11:51:47;12.80;99.90
22850;DHT22;11591;44.792;10.358;2023-02-22T11:57:16;13.00;99.90
22850;DHT22;11591;44.792;10.358;2023-02-22T12:00:09;13.00;99.90
22850;DHT22;11591;44.792;10.358;2023-02-22T12:02:50;13.00;99.90
22850;DHT22;11591;44.792;10.358;2023-02-22T12:14:10;13.10;99.90
22850;DHT22;11591;44.792;10.358;2023-02-22T12:28:13;13.30;99.90
22850;DHT22;11591;44.792;10.358;2023-02-22T12:30:39;13.40;99.90
22850;DHT22;11591;44.792;10.358;2023-02-22T12:33:11;13.40;99.90
22850;DHT22;11591;44.792;10.358;2023-02-22T12:35:49;13.40;99.90
22850;DHT22;11591;44.792;10.358;2023-02-22T12:46:53;13.50;99.90
22850;DHT22;11591;44.792;10.358;2023-02-22T12:52:39;13.60;99.90
22850;DHT22;11591;44.792;10.358;2023-02-22T12:55:31;13.60;99.90
22850;DHT22;11591;44.792;10.358;2023-02-22T13:01:36;13.60;99.90
22850;DHT22;11591;44.792;10.358;2023-02-22T13:04:04;13.60;99.90
22850;DHT22;11591;44.792;10.358;2023-02-22T13:07:27;13.60;99.90
22850;DHT22;11591;44.792;10.358;2023-02-22T13:15:20;13.70;99.90
22850;DHT22;11591;44.792;10.358;2023-02-22T13:20:36;13.70;99.90
22850;DHT22;11591;44.792;10.358;2023-02-22T13:53:20;13.80;99.90
22850;DHT22;11591;44.792;10.358;2023-02-22T13:55:52;13.70;99.90
22850;DHT22;11591;44.792;10.358;2023-02-22T13:58:18;13.70;99.90
22850;DHT22;11591;44.792;10.358;2023-02-22T14:00:54;13.70;99.90
22850;DHT22;11591;44.792;10.358;2023-02-22T14:05:50;13.70;99.90
22850;DHT22;11591;44.792;10.358;2023-02-22T14:10:54;13.70;99.90
22850;DHT22;11591;44.792;10.358;2023-02-22T14:13:27;13.70;99.90
22850;DHT22;11591;44.792;10.358;2023-02-22T14:18:28;13.70;99.90
22850;DHT22;11591;44.792;10.358;2023-02-22T14:21:17;13.70;99.90
22850;DHT22;11591;44.792;10.358;2023-02-22T14:23:51;13.70;99.90
22850;DHT22;11591;44.792;10.358;2023-02-22T14:28:59;13.60;99.90
22850;DHT22;11591;44.792;10.358;2023-02-22T14:31:34;13.70;99.90
22850;DHT22;11591;44.792;10.358;2023-02-22T14:34:13;13.60;99.90
22850;DHT22;11591;44.792;10.358;2023-02-22T14:53:15;13.50;99.90
22850;DHT22;11591;44.792;10.358;2023-02-22T14:55:52;13.50;99.90
22850;DHT22;11591;44.792;10.358;2023-02-22T15:01:36;13.50;99.90
22850;DHT22;11591;44.792;10.358;2023-02-22T15:06:46;13.50;99.90
22850;DHT22;11591;44.792;10.358;2023-02-22T15:09:17;13.50;99.90
22850;DHT22;11591;44.792;10.358;2023-02-22T15:12:12;13.50;99.90
22850;DHT22;11591;44.792;10.358;2023-02-22T15:14:40;13.50;99.90
22850;DHT22;11591;44.792;10.358;2023-02-22T15:17:17;13.50;99.90
22850;DHT22;11591;44.792;10.358;2023-02-22T15:19:45;13.40;99.90
22850;DHT22;11591;44.792;10.358;2023-02-22T15:22:21;13.40;99.90
22850;DHT22;11591;44.792;10.358;2023-02-22T15:25:05;13.40;99.90
22850;DHT22;11591;44.792;10.358;2023-02-22T15:27:33;13.40;99.90
22850;DHT22;11591;44.792;10.358;2023-02-22T15:30:05;13.40;99.90
22850;DHT22;11591;44.792;10.358;2023-02-22T15:32:34;13.40;99.90
22850;DHT22;11591;44.792;10.358;2023-02-22T15:35:28;13.30;99.90
22850;DHT22;11591;44.792;10.358;2023-02-22T15:40:31;13.30;99.90
22850;DHT22;11591;44.792;10.358;2023-02-22T15:43:22;13.40;99.90
22850;DHT22;11591;44.792;10.358;2023-02-22T15:45:58;13.30;99.90
22850;DHT22;11591;44.792;10.358;2023-02-22T15:48:25;13.30;99.90
22850;DHT22;11591;44.792;10.358;2023-02-22T15:51:10;13.30;99.90
22850;DHT22;11591;44.792;10.358;2023-02-22T15:53:41;13.20;99.90
22850;DHT22;11591;44.792;10.358;2023-02-22T15:56:17;13.20;99.90
22850;DHT22;11591;44.792;10.358;2023-02-22T15:58:45;13.30;99.90
22850;DHT22;11591;44.792;10.358;2023-02-22T16:01:17;13.20;99.90
22850;DHT22;11591;44.792;10.358;2023-02-22T16:03:50;13.20;99.90
22850;DHT22;11591;44.792;10.358;2023-02-22T16:08:53;13.20;99.90
22850;DHT22;11591;44.792;10.358;2023-02-22T16:11:30;13.20;99.90
22850;DHT22;11591;44.792;10.358;2023-02-22T16:14:04;13.10;99.90
22850;DHT22;11591;44.792;10.358;2023-02-22T16:16:36;13.20;99.90
22850;DHT22;11591;44.792;10.358;2023-02-22T16:19:41;13.20;99.90
22850;DHT22;11591;44.792;10.358;2023-02-22T16:22:34;13.10;99.90
22850;DHT22;11591;44.792;10.358;2023-02-22T16:27:48;13.00;99.90
22850;DHT22;11591;44.792;10.358;2023-02-22T16:32:47;13.00;99.90
22850;DHT22;11591;44.792;10.358;2023-02-22T16:35:13;13.00;99.90
22850;DHT22;11591;44.792;10.358;2023-02-22T16:37:50;13.00;99.90
22850;DHT22;11591;44.792;10.358;2023-02-22T16:43:03;13.00;99.90
22850;DHT22;11591;44.792;10.358;2023-02-22T16:45:30;13.00;99.90
22850;DHT22;11591;44.792;10.358;2023-02-22T16:47:58;13.00;99.90
22850;DHT22;11591;44.792;10.358;2023-02-22T16:50:24;12.90;99.90
22850;DHT22;11591;44.792;10.358;2023-02-22T16:52:52;12.90;99.90
22850;DHT22;11591;44.792;10.358;2023-02-22T16:55:19;12.90;99.90
22850;DHT22;11591;44.792;10.358;2023-02-22T16:57:47;12.90;99.90
22850;DHT22;11591;44.792;10.358;2023-02-22T17:00:15;12.90;99.90
22850;DHT22;11591;44.792;10.358;2023-02-22T17:02:43;12.90;99.90
22850;DHT22;11591;44.792;10.358;2023-02-22T17:05:13;12.90;99.90
22850;DHT22;11591;44.792;10.358;2023-02-22T17:07:40;12.90;99.90
22850;DHT22;11591;44.792;10.358;2023-02-22T17:10:13;12.80;99.90
22850;DHT22;11591;44.792;10.358;2023-02-22T17:12:39;12.80;99.90
22850;DHT22;11591;44.792;10.358;2023-02-22T17:15:20;12.80;99.90
22850;DHT22;11591;44.792;10.358;2023-02-22T17:17:47;12.80;99.90
22850;DHT22;11591;44.792;10.358;2023-02-22T17:20:13;12.80;99.90
22850;DHT22;11591;44.792;10.358;2023-02-22T17:22:39;12.80;99.90
22850;DHT22;11591;44.792;10.358;2023-02-22T17:25:18;12.70;99.90
22850;DHT22;11591;44.792;10.358;2023-02-22T17:27:44;12.70;99.90
22850;DHT22;11591;44.792;10.358;2023-02-22T17:30:11;12.70;99.90
22850;DHT22;11591;44.792;10.358;2023-02-22T17:32:39;12.70;99.90
22850;DHT22;11591;44.792;10.358;2023-02-22T17:35:05;12.70;99.90
22850;DHT22;11591;44.792;10.358;2023-02-22T17:37:31;12.70;99.90
22850;DHT22;11591;44.792;10.358;2023-02-22T17:39:56;12.70;99.90
22850;DHT22;11591;44.792;10.358;2023-02-22T17:42:22;12.70;99.90
22850;DHT22;11591;44.792;10.358;2023-02-22T17:44:48;12.70;99.90
22850;DHT22;11591;44.792;10.358;2023-02-22T17:47:15;12.70;99.90
22850;DHT22;11591;44.792;10.358;2023-02-22T17:49:40;12.70;99.90
22850;DHT22;11591;44.792;10.358;2023-02-22T17:52:06;12.70;99.90
22850;DHT22;11591;44.792;10.358;2023-02-22T17:54:32;12.70;99.90
22850;DHT22;11591;44.792;10.358;2023-02-22T17:56:59;12.70;99.90
22850;DHT22;11591;44.792;10.358;2023-02-22T17:59:25;12.60;99.90
22850;DHT22;11591;44.792;10.358;2023-02-22T18:01:51;12.60;99.90
22850;DHT22;11591;44.792;10.358;2023-02-22T18:04:17;12.60;99.90
22850;DHT22;11591;44.792;10.358;2023-02-22T18:06:43;12.60;99.90
22850;DHT22;11591;44.792;10.358;2023-02-22T18:09:09;12.60;99.90
22850;DHT22;11591;44.792;10.358;2023-02-22T18:11:37;12.60;99.90
22850;DHT22;11591;44.792;10.358;2023-02-22T18:14:03;12.60;99.90
22850;DHT22;11591;44.792;10.358;2023-02-22T18:16:29;12.60;99.90
22850;DHT22;11591;44.792;10.358;2023-02-22T18:18:55;12.60;99.90
22850;DHT22;11591;44.792;10.358;2023-02-22T18:21:22;12.60;99.90
22850;DHT22;11591;44.792;10.358;2023-02-22T18:23:48;12.60;99.90
22850;DHT22;11591;44.792;10.358;2023-02-22T18:26:16;12.50;99.90
22850;DHT22;11591;44.792;10.358;2023-02-22T18:28:43;12.50;99.90
22850;DHT22;11591;44.792;10.358;2023-02-22T18:31:11;12.60;99.90
22850;DHT22;11591;44.792;10.358;2023-02-22T18:33:44;12.60;99.90
22850;DHT22;11591;44.792;10.358;2023-02-22T18:36:11;12.60;99.90
22850;DHT22;11591;44.792;10.358;2023-02-22T18:38:38;12.60;99.90
22850;DHT22;11591;44.792;10.358;2023-02-22T18:41:09;12.50;99.90
22850;DHT22;11591;44.792;10.358;2023-02-22T18:43:36;12.50;99.90
22850;DHT22;11591;44.792;10.358;2023-02-22T18:46:09;12.50;99.90
22850;DHT22;11591;44.792;10.358;2023-02-22T18:48:35;12.50;99.90
22850;DHT22;11591;44.792;10.358;2023-02-22T18:51:04;12.50;99.90
22850;DHT22;11591;44.792;10.358;2023-02-22T18:53:34;12.50;99.90